Time;durP1;ratioP1;P1;durP2;ratioP2;P2;SDS_P1;SDS_P2;PMS_P1;PMS_P2;Temp;Humidity;BMP_temperature;BMP_pressure;BME280_temperature;BME280_humidity;BME280_pressure;Samples;Min_cycle;Max_cycle;Signal;HPM_P1;HPM_P2
2022/07/01 00:02:14;;;;;;;4.15;1.20;;;15.10;99.90;;;;;;5043148;28;20068;-79
2022/07/01 00:04:40;;;;;;;1.73;0.65;;;15.10;99.90;;;;;;5030292;28;20068;-77
2022/07/01 00:07:06;;;;;;;7.47;2.13;;;15.10;99.90;;;;;;5020530;28;20034;-77
2022/07/01 00:09:31;;;;;;;3.50;1.10;;;15.60;99.90;;;;;;5035504;28;20056;-77
2022/07/01 00:11:57;;;;;;;6.50;1.20;;;15.20;99.90;;;;;;5046809;28;20036;-77
2022/07/01 00:14:23;;;;;;;2.92;1.08;;;15.60;99.90;;;;;;5047099;28;20411;-77
2022/07/01 00:16:49;;;;;;;5.30;2.05;;;15.50;99.90;;;;;;5045707;28;20041;-74
2022/07/01 00:19:16;;;;;;;4.72;0.70;;;15.10;99.90;;;;;;5038777;28;20041;-78
2022/07/01 00:21:41;;;;;;;4.05;1.05;;;15.10;99.90;;;;;;5027030;28;20057;-78
2022/07/01 00:24:07;;;;;;;2.40;0.90;;;15.50;99.90;;;;;;5042776;28;20041;-78
2022/07/01 00:26:33;;;;;;;2.72;1.08;;;15.10;99.90;;;;;;5045179;28;20094;-77
2022/07/01 00:28:58;;;;;;;2.63;1.25;;;15.20;99.90;;;;;;5056257;28;20059;-77
2022/07/01 00:31:24;;;;;;;4.80;1.25;;;15.00;99.90;;;;;;5045881;28;20051;-77
2022/07/01 00:33:50;;;;;;;3.30;1.10;;;15.20;99.90;;;;;;5033943;28;20051;-76
2022/07/01 00:36:15;;;;;;;1.50;1.20;;;15.10;99.90;;;;;;5033155;28;20051;-77
2022/07/01 00:38:41;;;;;;;1.63;1.25;;;15.40;99.90;;;;;;5045082;28;20033;-76
2022/07/01 00:41:07;;;;;;;2.30;1.45;;;15.20;99.90;;;;;;5045044;28;20048;-76
2022/07/01 00:43:38;;;;;;;2.92;1.20;;;15.20;99.90;;;;;;5033017;28;20572;-77
2022/07/01 00:46:04;;;;;;;1.70;1.25;;;15.40;99.90;;;;;;5046126;28;20045;-74
2022/07/01 00:48:32;;;;;;;2.25;1.48;;;15.30;99.90;;;;;;5045377;28;20200;-79
2022/07/01 00:50:58;;;;;;;1.50;1.40;;;15.00;99.90;;;;;;5038504;28;20080;-78
2022/07/01 00:53:24;;;;;;;1.60;1.30;;;15.40;99.90;;;;;;5036860;28;20077;-77
2022/07/01 00:55:50;;;;;;;3.42;1.25;;;15.00;99.90;;;;;;5027579;28;20491;-77
2022/07/01 00:58:16;;;;;;;1.52;1.08;;;15.40;99.90;;;;;;5042216;28;20065;-77
2022/07/01 01:00:42;;;;;;;3.20;1.45;;;15.40;99.90;;;;;;5040365;28;20044;-77
2022/07/01 01:03:10;;;;;;;1.25;1.15;;;14.90;99.90;;;;;;5037155;28;20628;-78
2022/07/01 01:05:37;;;;;;;1.10;0.80;;;15.00;99.90;;;;;;5039684;28;20048;-79
2022/07/01 01:08:03;;;;;;;1.33;0.70;;;14.90;99.90;;;;;;5046994;28;20048;-77
2022/07/01 01:10:30;;;;;;;2.15;1.10;;;14.90;99.90;;;;;;5043562;28;20129;-78
2022/07/01 01:12:56;;;;;;;1.17;1.02;;;14.80;99.90;;;;;;5040900;28;20462;-78
2022/07/01 01:15:23;;;;;;;1.52;1.35;;;15.10;99.90;;;;;;5043350;28;20045;-77
2022/07/01 01:17:49;;;;;;;1.17;0.95;;;15.20;99.90;;;;;;5038819;28;20121;-75
2022/07/01 01:20:19;;;;;;;2.33;0.90;;;15.20;99.90;;;;;;5036130;28;20125;-78
2022/07/01 01:22:46;;;;;;;2.50;1.10;;;15.30;99.90;;;;;;5044379;28;20124;-78
2022/07/01 01:25:12;;;;;;;2.50;1.17;;;14.90;99.90;;;;;;5025537;28;20783;-79
2022/07/01 01:27:38;;;;;;;1.30;1.20;;;15.20;99.90;;;;;;5039354;28;20044;-79
2022/07/01 01:30:05;;;;;;;3.53;1.55;;;14.90;99.90;;;;;;5041633;28;20051;-77
2022/07/01 01:32:31;;;;;;;4.53;1.92;;;15.10;99.90;;;;;;5038310;28;20041;-79
2022/07/01 01:34:57;;;;;;;3.45;1.45;;;15.20;99.90;;;;;;5040229;28;20040;-77
2022/07/01 01:37:22;;;;;;;1.42;1.25;;;15.20;99.90;;;;;;5032861;28;20057;-78
2022/07/01 01:39:48;;;;;;;2.75;2.10;;;15.10;99.90;;;;;;5044344;28;20492;-78
2022/07/01 01:42:14;;;;;;;3.17;1.60;;;15.20;99.90;;;;;;5040987;28;20083;-78
2022/07/01 01:44:39;;;;;;;2.70;1.70;;;15.30;99.90;;;;;;5039512;28;20064;-77
2022/07/01 01:47:06;;;;;;;3.95;1.70;;;15.00;99.90;;;;;;5045018;28;20037;-78
2022/07/01 01:49:31;;;;;;;2.45;2.25;;;15.30;99.90;;;;;;5044977;28;20045;-78
2022/07/01 01:51:59;;;;;;;3.88;2.25;;;15.20;99.90;;;;;;5026735;28;20047;-78
2022/07/01 01:54:25;;;;;;;2.50;1.90;;;15.30;99.90;;;;;;5045317;28;20053;-77
2022/07/01 01:56:51;;;;;;;3.55;2.10;;;14.90;99.90;;;;;;5032565;28;20065;-78
2022/07/01 01:59:17;;;;;;;2.63;1.70;;;14.80;99.90;;;;;;5027603;28;20492;-77
2022/07/01 02:01:42;;;;;;;3.97;2.10;;;15.00;99.90;;;;;;5041071;28;20441;-78
2022/07/01 02:04:08;;;;;;;3.42;2.10;;;15.30;99.90;;;;;;5039851;28;20558;-78
2022/07/01 02:06:34;;;;;;;3.15;1.83;;;14.80;99.90;;;;;;5023686;28;20405;-78
2022/07/01 02:08:59;;;;;;;3.92;2.35;;;15.20;99.90;;;;;;5042783;28;20435;-76
2022/07/01 02:11:25;;;;;;;3.85;1.67;;;15.10;99.90;;;;;;5039365;28;20496;-79
2022/07/01 02:13:51;;;;;;;3.55;1.83;;;15.20;99.90;;;;;;5026470;28;20053;-78
2022/07/01 02:16:16;;;;;;;2.33;1.77;;;15.10;99.90;;;;;;5041251;28;20463;-78
2022/07/01 02:18:42;;;;;;;2.22;1.55;;;14.70;99.90;;;;;;5045043;28;20052;-78
2022/07/01 02:21:08;;;;;;;4.60;2.08;;;15.00;99.90;;;;;;5044515;28;20397;-78
2022/07/01 02:23:33;;;;;;;2.05;1.83;;;14.60;99.90;;;;;;5040671;28;20047;-77
2022/07/01 02:25:59;;;;;;;3.30;1.80;;;14.80;99.90;;;;;;5045221;28;20032;-78
2022/07/01 02:28:25;;;;;;;3.30;1.83;;;14.60;99.90;;;;;;5045119;28;20056;-77
2022/07/01 02:30:50;;;;;;;10.48;3.40;;;14.70;99.90;;;;;;5046263;28;20405;-78
2022/07/01 02:33:16;;;;;;;3.70;2.83;;;14.90;99.90;;;;;;5046237;28;20118;-78
2022/07/01 02:35:42;;;;;;;5.88;3.08;;;14.90;99.90;;;;;;5047285;28;20423;-78
2022/07/01 02:38:08;;;;;;;6.05;2.33;;;14.80;99.90;;;;;;5049279;28;20030;-78
2022/07/01 02:40:40;;;;;;;2.78;2.45;;;14.80;99.90;;;;;;5043152;28;20377;-79
2022/07/01 02:43:09;;;;;;;4.40;2.92;;;14.90;99.90;;;;;;5044911;28;20044;-76
2022/07/01 02:45:35;;;;;;;3.70;3.03;;;14.80;99.90;;;;;;5048149;28;20192;-78
2022/07/01 02:48:01;;;;;;;3.20;2.90;;;14.90;99.90;;;;;;5047200;28;20132;-78
2022/07/01 02:50:27;;;;;;;4.75;2.72;;;14.60;99.90;;;;;;5027724;28;20045;-76
2022/07/01 02:52:53;;;;;;;4.57;3.15;;;14.90;99.90;;;;;;5028574;28;20419;-78
2022/07/01 02:55:19;;;;;;;7.05;2.92;;;14.90;99.90;;;;;;5035319;28;20049;-76
2022/07/01 02:57:46;;;;;;;5.28;3.40;;;14.60;99.90;;;;;;5033035;28;20500;-77
2022/07/01 03:00:13;;;;;;;6.15;3.55;;;14.80;99.90;;;;;;5038040;28;20124;-78
2022/07/01 03:02:40;;;;;;;5.93;4.63;;;14.60;99.90;;;;;;5035289;28;20045;-78
2022/07/01 03:05:06;;;;;;;4.78;2.97;;;14.60;99.90;;;;;;5043077;28;20487;-77
2022/07/01 03:07:32;;;;;;;4.40;3.88;;;14.50;99.90;;;;;;5039024;28;20112;-76
2022/07/01 03:09:58;;;;;;;4.70;3.72;;;14.50;99.90;;;;;;5033602;28;20510;-77
2022/07/01 03:12:32;;;;;;;12.20;4.32;;;14.80;99.90;;;;;;5027669;28;20041;-78
2022/07/01 03:14:59;;;;;;;6.00;3.60;;;14.50;99.90;;;;;;5041890;28;20292;-78
2022/07/01 03:17:26;;;;;;;5.47;3.85;;;14.50;99.90;;;;;;5042926;28;20040;-79
2022/07/01 03:19:53;;;;;;;7.50;3.97;;;14.50;99.90;;;;;;5046581;28;20037;-76
2022/07/01 03:22:20;;;;;;;4.63;4.22;;;14.70;99.90;;;;;;5043729;28;20669;-75
2022/07/01 03:24:47;;;;;;;4.68;3.60;;;14.80;99.90;;;;;;5048134;28;20080;-79
2022/07/01 03:27:13;;;;;;;5.07;4.57;;;14.40;99.90;;;;;;5058374;28;20487;-79
2022/07/01 03:29:39;;;;;;;7.65;4.25;;;14.40;99.90;;;;;;5049283;28;20049;-78
2022/07/01 03:32:05;;;;;;;6.05;4.95;;;14.70;99.90;;;;;;5029342;28;20041;-79
2022/07/01 03:34:31;;;;;;;10.65;4.13;;;14.40;99.90;;;;;;5027976;28;20045;-78
2022/07/01 03:36:57;;;;;;;7.18;4.60;;;14.70;99.90;;;;;;5043860;28;20036;-78
2022/07/01 03:39:23;;;;;;;12.13;3.83;;;14.60;99.90;;;;;;5028326;28;20053;-78
2022/07/01 03:41:48;;;;;;;8.35;4.15;;;14.60;99.90;;;;;;5027589;28;20124;-77
2022/07/01 03:44:14;;;;;;;9.07;5.18;;;14.60;99.90;;;;;;5029948;28;20044;-78
2022/07/01 03:46:40;;;;;;;5.70;3.92;;;14.60;99.90;;;;;;5045584;28;20045;-77
2022/07/01 03:49:05;;;;;;;6.90;5.10;;;14.50;99.90;;;;;;5047049;28;20041;-78
2022/07/01 03:51:31;;;;;;;6.18;3.83;;;14.20;99.90;;;;;;5048574;28;20128;-79
2022/07/01 03:56:41;;;;;;;9.85;5.65;;;14.20;99.90;;;;;;5043495;28;20045;-78
2022/07/01 03:59:06;;;;;;;10.70;6.10;;;14.40;99.90;;;;;;5045219;28;20430;-77
2022/07/01 04:01:32;;;;;;;9.65;5.25;;;14.40;99.90;;;;;;5047335;28;20403;-79
2022/07/01 04:03:58;;;;;;;9.07;5.00;;;14.40;99.90;;;;;;5038530;28;20102;-77
2022/07/01 04:06:23;;;;;;;11.85;6.18;;;14.60;99.90;;;;;;5045094;28;20049;-76
2022/07/01 04:08:49;;;;;;;11.32;5.75;;;14.30;99.90;;;;;;5042991;28;20057;-77
2022/07/01 04:11:17;;;;;;;6.35;5.22;;;14.50;99.90;;;;;;5046626;28;20194;-77
2022/07/01 04:13:49;;;;;;;8.13;6.32;;;14.40;99.90;;;;;;5046549;28;20164;-76
2022/07/01 04:16:16;;;;;;;9.88;5.70;;;14.30;99.90;;;;;;5045387;28;20088;-77
2022/07/01 04:18:42;;;;;;;6.32;5.60;;;14.60;99.90;;;;;;5047977;28;20041;-78
2022/07/01 04:23:52;;;;;;;11.55;6.22;;;14.40;99.90;;;;;;5034364;28;20107;-77
2022/07/01 04:26:18;;;;;;;11.50;7.13;;;14.60;99.90;;;;;;5027590;28;20033;-78
2022/07/01 04:28:44;;;;;;;13.90;8.32;;;14.70;99.90;;;;;;5028371;28;20422;-78
2022/07/01 04:31:09;;;;;;;7.70;5.93;;;14.80;99.90;;;;;;5032778;28;20040;-77
2022/07/01 04:33:35;;;;;;;5.38;4.88;;;14.60;99.90;;;;;;5044326;28;20037;-77
2022/07/01 04:36:01;;;;;;;13.32;6.60;;;14.30;99.90;;;;;;5043254;28;20134;-76
2022/07/01 04:38:27;;;;;;;5.50;4.85;;;14.50;99.90;;;;;;5027421;28;20063;-77
2022/07/01 04:43:36;;;;;;;5.20;4.70;;;14.30;99.90;;;;;;5041744;28;20424;-76
2022/07/01 04:46:02;;;;;;;9.00;5.07;;;14.40;99.90;;;;;;5046177;28;20079;-76
2022/07/01 04:48:28;;;;;;;10.23;6.30;;;14.20;99.90;;;;;;5045461;28;20080;-77
2022/07/01 04:50:54;;;;;;;9.63;6.18;;;14.50;99.90;;;;;;5044311;28;20136;-77
2022/07/01 04:53:19;;;;;;;6.53;4.85;;;14.40;99.90;;;;;;5047454;28;20037;-76
2022/07/01 04:55:45;;;;;;;10.98;7.53;;;14.50;99.90;;;;;;5037355;28;20033;-77
2022/07/01 04:58:12;;;;;;;11.88;6.95;;;14.30;99.90;;;;;;5046933;28;20404;-77
2022/07/01 05:00:38;;;;;;;10.77;7.70;;;14.30;99.90;;;;;;5045159;28;20558;-76
2022/07/01 05:03:04;;;;;;;13.80;8.55;;;14.60;99.90;;;;;;5043024;28;20063;-77
2022/07/01 05:05:29;;;;;;;10.65;8.68;;;14.70;99.90;;;;;;5047161;28;20502;-77
2022/07/01 05:07:55;;;;;;;11.65;9.25;;;14.70;99.90;;;;;;5039400;28;20537;-76
2022/07/01 05:10:21;;;;;;;15.57;8.68;;;14.50;99.90;;;;;;5043783;28;20063;-76
2022/07/01 05:12:46;;;;;;;14.57;10.10;;;14.60;99.90;;;;;;5026844;28;20045;-76
2022/07/01 05:15:12;;;;;;;17.17;10.32;;;14.60;99.90;;;;;;5040521;28;20480;-77
2022/07/01 05:23:06;;;;;;;20.17;14.63;;;14.90;99.90;;;;;;5044400;28;20049;-77
2022/07/01 05:25:31;;;;;;;19.98;14.60;;;14.60;99.90;;;;;;5044804;28;20407;-77
2022/07/01 05:27:57;;;;;;;22.13;16.33;;;14.90;99.90;;;;;;5047574;28;20458;-75
2022/07/01 05:30:23;;;;;;;24.55;17.77;;;15.00;99.90;;;;;;5038634;28;20459;-76
2022/07/01 05:32:49;;;;;;;25.65;18.73;;;14.80;99.90;;;;;;5034605;28;20038;-76
2022/07/01 05:35:14;;;;;;;27.88;19.63;;;14.90;99.90;;;;;;5044426;28;20071;-75
2022/07/01 05:37:41;;;;;;;33.97;20.25;;;14.70;99.90;;;;;;5043858;28;20036;-75
2022/07/01 05:40:08;;;;;;;34.20;22.05;;;15.00;99.90;;;;;;5043006;28;20128;-78
2022/07/01 05:42:33;;;;;;;35.08;21.35;;;14.80;99.90;;;;;;5038416;28;20055;-80
2022/07/01 05:44:59;;;;;;;37.08;23.70;;;14.80;99.90;;;;;;5037771;28;20131;-79
2022/07/01 05:47:25;;;;;;;27.77;20.23;;;14.80;99.90;;;;;;5046332;28;20033;-78
2022/07/01 05:49:50;;;;;;;32.90;22.75;;;15.00;99.90;;;;;;5044638;28;20079;-78
2022/07/01 05:52:16;;;;;;;33.83;23.27;;;14.90;99.90;;;;;;5036697;28;20050;-78
2022/07/01 05:54:41;;;;;;;33.42;22.27;;;14.90;99.90;;;;;;5042363;28;20041;-78
2022/07/01 05:57:07;;;;;;;44.75;26.88;;;15.20;99.90;;;;;;5031705;28;20079;-77
2022/07/01 05:59:33;;;;;;;30.50;22.50;;;14.80;99.90;;;;;;5037863;28;20045;-77
2022/07/01 06:01:58;;;;;;;38.53;24.83;;;14.90;99.90;;;;;;5044710;28;20357;-78
2022/07/01 06:04:24;;;;;;;37.92;24.27;;;15.20;99.90;;;;;;5042772;28;20124;-77
2022/07/01 06:06:50;;;;;;;44.65;25.38;;;15.20;99.90;;;;;;5044481;28;20045;-79
2022/07/01 06:09:16;;;;;;;38.35;25.10;;;15.20;99.90;;;;;;5034268;28;20061;-78
2022/07/01 06:11:42;;;;;;;33.30;23.25;;;15.20;99.90;;;;;;5025979;28;20153;-78
2022/07/01 06:14:08;;;;;;;34.22;24.55;;;15.00;99.90;;;;;;5036855;28;20214;-79
2022/07/01 06:16:34;;;;;;;31.02;23.20;;;15.10;99.90;;;;;;5043017;28;20403;-78
2022/07/01 06:19:00;;;;;;;30.45;23.70;;;15.20;99.90;;;;;;5043672;28;20059;-78
2022/07/01 06:21:26;;;;;;;38.97;25.33;;;15.50;99.90;;;;;;5044559;28;20454;-76
2022/07/01 06:23:52;;;;;;;32.67;23.00;;;15.20;99.90;;;;;;5042489;28;20049;-77
2022/07/01 06:26:17;;;;;;;31.88;24.83;;;15.20;99.90;;;;;;5042789;28;20037;-77
2022/07/01 06:28:43;;;;;;;37.08;22.73;;;15.50;99.90;;;;;;5045436;28;20070;-77
2022/07/01 06:31:09;;;;;;;36.05;24.92;;;15.30;99.90;;;;;;5033207;28;20385;-78
2022/07/01 06:33:34;;;;;;;35.63;26.08;;;15.20;99.90;;;;;;5042836;28;20466;-78
2022/07/01 06:36:00;;;;;;;31.77;23.52;;;15.50;99.90;;;;;;5043600;28;20048;-79
2022/07/01 06:38:26;;;;;;;33.88;25.38;;;15.40;99.90;;;;;;5045883;28;20045;-80
2022/07/01 06:43:36;;;;;;;35.00;24.05;;;15.60;99.90;;;;;;5034250;28;20049;-78
2022/07/01 06:46:02;;;;;;;34.17;23.60;;;15.60;99.90;;;;;;5029513;28;20044;-77
2022/07/01 06:48:28;;;;;;;35.30;25.88;;;15.70;99.90;;;;;;5026560;28;20548;-79
2022/07/01 06:50:54;;;;;;;30.33;23.35;;;15.80;99.90;;;;;;5024350;28;20087;-78
2022/07/01 06:53:19;;;;;;;29.50;23.00;;;15.70;99.90;;;;;;5038065;28;20166;-77
2022/07/01 06:55:45;;;;;;;32.53;26.20;;;15.50;99.90;;;;;;5037489;28;20112;-80
2022/07/01 06:58:11;;;;;;;30.00;25.25;;;15.60;99.90;;;;;;5038579;28;20337;-79
2022/07/01 07:00:37;;;;;;;31.40;26.67;;;15.90;99.90;;;;;;5039663;28;21352;-78
2022/07/01 07:03:03;;;;;;;28.10;23.05;;;15.70;99.90;;;;;;5044682;28;20111;-79
2022/07/01 07:05:31;;;;;;;26.58;21.67;;;15.90;99.90;;;;;;5047969;28;20037;-80
2022/07/01 07:07:57;;;;;;;31.42;24.55;;;15.70;99.90;;;;;;5049437;28;20041;-82
2022/07/01 07:10:23;;;;;;;30.85;23.33;;;15.60;99.90;;;;;;5047382;28;20056;-83
2022/07/01 07:12:49;;;;;;;28.45;22.17;;;15.80;99.90;;;;;;5043061;28;20558;-76
2022/07/01 07:15:15;;;;;;;25.55;22.55;;;15.70;99.90;;;;;;5039582;28;20252;-79
2022/07/01 07:17:41;;;;;;;25.73;23.02;;;15.80;99.90;;;;;;5051323;28;20068;-79
2022/07/01 07:20:08;;;;;;;31.13;25.05;;;15.80;99.90;;;;;;5045433;28;20049;-70
2022/07/01 07:22:33;;;;;;;26.55;22.75;;;16.00;99.90;;;;;;5054838;28;20048;-78
2022/07/01 07:24:59;;;;;;;28.50;23.25;;;16.00;99.90;;;;;;5053502;28;20049;-78
2022/07/01 07:27:25;;;;;;;28.52;20.10;;;16.00;99.90;;;;;;5050709;28;20114;-79
2022/07/01 07:29:51;;;;;;;29.63;21.80;;;15.90;99.90;;;;;;5040113;28;20040;-78
2022/07/01 07:32:16;;;;;;;26.48;22.20;;;16.10;99.90;;;;;;5036679;28;20396;-79
2022/07/01 07:34:43;;;;;;;26.42;22.10;;;16.50;99.90;;;;;;5041846;28;20052;-79
2022/07/01 07:37:08;;;;;;;24.55;21.58;;;16.30;99.90;;;;;;5068111;28;20441;-80
2022/07/01 07:39:34;;;;;;;23.88;19.25;;;16.60;99.90;;;;;;5063004;28;20060;-84
2022/07/01 07:42:00;;;;;;;24.52;22.02;;;16.50;99.90;;;;;;5051496;28;20174;-80
2022/07/01 07:44:26;;;;;;;33.08;23.27;;;17.00;99.90;;;;;;5048559;28;20025;-81
2022/07/01 07:46:52;;;;;;;22.88;20.30;;;17.90;99.90;;;;;;5046321;28;20068;-80
2022/07/01 07:49:18;;;;;;;23.90;20.73;;;18.00;99.90;;;;;;5046496;28;20373;-80
2022/07/01 07:51:44;;;;;;;20.88;18.67;;;18.30;99.90;;;;;;5049487;28;20096;-80
2022/07/01 07:54:09;;;;;;;17.65;15.88;;;18.30;99.90;;;;;;5048644;28;20080;-82
2022/07/01 07:56:35;;;;;;;20.75;16.58;;;17.80;99.90;;;;;;5029440;28;20048;-81
2022/07/01 07:59:00;;;;;;;17.92;15.48;;;18.00;99.90;;;;;;5031496;28;20037;-78
2022/07/01 08:01:26;;;;;;;19.08;15.43;;;17.90;99.90;;;;;;5038928;28;20076;-79
2022/07/01 08:03:52;;;;;;;18.48;16.13;;;17.60;99.90;;;;;;5027808;28;20496;-78
2022/07/01 08:06:18;;;;;;;20.38;17.10;;;17.50;99.90;;;;;;5027059;28;20042;-75
2022/07/01 08:08:45;;;;;;;17.17;15.20;;;17.60;99.90;;;;;;5040095;28;20110;-79
2022/07/01 08:11:11;;;;;;;31.55;15.60;;;17.90;99.90;;;;;;5046422;28;20091;-78
2022/07/01 08:13:36;;;;;;;19.02;14.57;;;18.20;99.90;;;;;;5045934;28;20033;-79
2022/07/01 08:16:03;;;;;;;20.08;16.10;;;18.00;99.90;;;;;;5049496;28;20427;-78
2022/07/01 08:18:29;;;;;;;16.20;13.77;;;17.80;99.90;;;;;;5047475;28;20076;-77
2022/07/01 08:20:55;;;;;;;16.27;14.45;;;17.90;99.90;;;;;;5046507;28;20079;-78
2022/07/01 08:23:22;;;;;;;17.13;15.32;;;17.80;99.90;;;;;;5045263;28;20059;-78
2022/07/01 08:25:49;;;;;;;18.95;15.88;;;17.70;99.90;;;;;;5047990;28;20114;-79
2022/07/01 08:28:15;;;;;;;18.92;11.90;;;17.80;99.90;;;;;;5045523;28;20041;-78
2022/07/01 08:30:41;;;;;;;16.80;14.05;;;17.80;99.90;;;;;;5031578;28;20051;-79
2022/07/01 08:33:06;;;;;;;14.48;11.10;;;17.90;99.90;;;;;;5034927;28;20037;-78
2022/07/01 08:35:32;;;;;;;10.90;9.90;;;17.70;99.90;;;;;;5039967;28;20569;-79
2022/07/01 08:38:01;;;;;;;13.35;10.20;;;17.70;99.90;;;;;;5043449;28;20902;-78
2022/07/01 08:40:27;;;;;;;14.18;10.23;;;17.60;99.90;;;;;;5026619;28;20112;-78
2022/07/01 08:43:01;;;;;;;13.40;10.55;;;17.90;99.90;;;;;;5015228;28;20102;-78
2022/07/01 08:45:29;;;;;;;10.38;9.23;;;17.80;99.90;;;;;;5022137;28;20045;-78
2022/07/01 08:47:57;;;;;;;13.45;8.63;;;18.00;99.90;;;;;;5042480;28;20045;-78
2022/07/01 08:50:39;;;;;;;14.85;9.27;;;18.20;99.90;;;;;;5032269;28;20075;-79
2022/07/01 08:53:06;;;;;;;12.38;8.15;;;18.20;99.90;;;;;;5040332;28;20048;-79
2022/07/01 08:55:32;;;;;;;12.88;8.05;;;18.00;99.90;;;;;;5038657;28;20052;-79
2022/07/01 08:57:58;;;;;;;11.95;5.78;;;18.10;99.90;;;;;;5046637;28;20424;-79
2022/07/01 09:00:31;;;;;;;12.27;5.35;;;18.20;99.90;;;;;;5045864;28;20116;-80
2022/07/01 09:02:59;;;;;;;7.35;6.65;;;18.20;99.90;;;;;;5039552;28;20025;-80
2022/07/01 09:05:26;;;;;;;11.35;6.82;;;18.60;99.90;;;;;;5031353;28;20076;-78
2022/07/01 09:08:00;;;;;;;6.10;4.13;;;18.90;99.90;;;;;;5043800;28;20098;-79
2022/07/01 09:10:26;;;;;;;8.80;5.00;;;18.80;99.90;;;;;;5025035;28;20128;-77
2022/07/01 09:12:52;;;;;;;5.75;2.83;;;19.10;99.90;;;;;;5043319;28;20033;-80
2022/07/01 09:15:25;;;;;;;7.70;4.30;;;19.00;99.90;;;;;;5044854;28;20502;-79
2022/07/01 09:17:52;;;;;;;9.15;4.35;;;19.30;99.90;;;;;;5025274;28;20179;-79
2022/07/01 09:20:29;;;;;;;9.02;3.75;;;19.40;99.90;;;;;;5025350;28;20169;-79
2022/07/01 09:23:06;;;;;;;9.95;3.45;;;19.30;99.90;;;;;;5024308;28;20049;-80
2022/07/01 09:25:39;;;;;;;6.13;5.10;;;19.10;99.90;;;;;;5042761;28;20407;-78
2022/07/01 09:28:07;;;;;;;8.38;5.03;;;18.80;99.90;;;;;;5043616;28;20044;-78
2022/07/01 09:30:33;;;;;;;7.05;3.50;;;18.60;99.90;;;;;;5043766;28;20056;-77
2022/07/01 09:33:23;;;;;;;8.05;2.92;;;18.70;99.90;;;;;;5044588;28;20041;-77
2022/07/01 09:35:49;;;;;;;9.23;2.53;;;18.80;99.90;;;;;;5041582;28;20395;-76
2022/07/01 09:38:17;;;;;;;5.53;3.17;;;19.10;99.90;;;;;;5043661;28;20464;-79
2022/07/01 09:41:00;;;;;;;6.82;3.17;;;19.10;99.90;;;;;;5046175;28;20111;-80
2022/07/01 09:43:31;;;;;;;8.10;3.22;;;19.10;99.90;;;;;;5046042;28;20079;-79
2022/07/01 09:46:10;;;;;;;6.60;2.92;;;19.10;99.90;;;;;;5037866;28;20396;-79
2022/07/01 09:48:36;;;;;;;9.18;6.57;;;19.30;99.90;;;;;;5031426;28;20407;-79
2022/07/01 09:51:04;;;;;;;11.93;5.93;;;19.60;99.90;;;;;;5039086;28;20049;-79
2022/07/01 09:53:30;;;;;;;6.88;5.43;;;19.80;99.90;;;;;;5044118;28;20047;-80
2022/07/01 09:55:56;;;;;;;8.57;5.43;;;20.00;99.90;;;;;;5045633;28;20499;-80
2022/07/01 09:58:22;;;;;;;5.32;3.05;;;20.20;99.90;;;;;;5043621;28;20037;-80
2022/07/01 10:00:48;;;;;;;4.93;3.17;;;19.90;99.90;;;;;;5043179;28;20033;-79
2022/07/01 10:03:17;;;;;;;5.05;3.13;;;19.60;99.90;;;;;;5045153;28;20289;-79
2022/07/01 10:05:46;;;;;;;6.35;2.90;;;19.10;99.90;;;;;;5042319;28;20049;-79
2022/07/01 10:08:32;;;;;;;7.65;3.33;;;18.70;99.90;;;;;;5040979;28;20104;-77
2022/07/01 10:11:05;;;;;;;6.85;3.60;;;18.90;99.90;;;;;;5007554;28;20140;-79
2022/07/01 10:13:33;;;;;;;7.57;4.57;;;18.70;99.90;;;;;;5025854;28;20404;-78
2022/07/01 10:16:01;;;;;;;3.58;1.83;;;18.60;99.90;;;;;;5028279;28;20087;-79
2022/07/01 10:18:27;;;;;;;9.77;2.03;;;18.10;99.90;;;;;;5039872;28;20077;-79
2022/07/01 10:20:55;;;;;;;5.60;1.30;;;17.70;99.90;;;;;;5025651;28;20243;-79
2022/07/01 10:23:24;;;;;;;7.25;1.85;;;17.30;99.90;;;;;;5025755;28;20069;-77
2022/07/01 10:25:53;;;;;;;4.18;1.33;;;17.10;99.90;;;;;;5023999;28;20041;-78
2022/07/01 10:28:26;;;;;;;4.47;0.60;;;17.00;99.90;;;;;;5036603;28;20055;-79
2022/07/01 10:30:56;;;;;;;5.88;2.03;;;16.70;99.90;;;;;;5043899;28;20043;-79
2022/07/01 10:33:41;;;;;;;5.30;0.75;;;16.80;99.90;;;;;;5041364;28;20041;-78
2022/07/01 10:36:11;;;;;;;4.28;1.25;;;16.60;99.90;;;;;;5044760;28;20102;-79
2022/07/01 10:39:10;;;;;;;2.50;0.52;;;16.60;99.90;;;;;;5044198;28;20136;-79
2022/07/01 10:41:41;;;;;;;2.83;1.05;;;16.70;99.90;;;;;;5040695;28;20091;-78
2022/07/01 10:44:15;;;;;;;2.35;0.90;;;17.20;99.90;;;;;;5035569;28;20080;-79
2022/07/01 10:47:04;;;;;;;2.83;1.25;;;17.80;99.90;;;;;;5046047;28;20087;-79
2022/07/01 10:49:36;;;;;;;2.30;0.90;;;17.60;99.90;;;;;;5049198;28;20447;-79
2022/07/01 10:52:08;;;;;;;8.23;1.27;;;17.50;99.90;;;;;;5049034;28;20463;-78
2022/07/01 10:54:34;;;;;;;4.28;1.05;;;17.40;99.90;;;;;;5049116;28;20041;-79
2022/07/01 10:57:19;;;;;;;4.28;1.00;;;17.40;99.90;;;;;;5043330;28;20498;-77
2022/07/01 10:59:49;;;;;;;5.30;1.00;;;17.60;99.90;;;;;;5046570;28;20053;-77
2022/07/01 11:02:23;;;;;;;5.03;1.23;;;17.60;99.90;;;;;;5048258;28;20075;-77
2022/07/01 11:04:55;;;;;;;6.03;1.30;;;18.30;99.90;;;;;;5046181;28;20138;-78
2022/07/01 11:07:25;;;;;;;4.88;1.75;;;18.30;99.90;;;;;;5047592;28;20045;-77
2022/07/01 11:09:50;;;;;;;2.83;0.88;;;18.40;99.90;;;;;;5047057;28;20045;-77
2022/07/01 11:12:19;;;;;;;3.67;1.35;;;18.20;99.90;;;;;;5049388;28;20053;-77
2022/07/01 11:14:44;;;;;;;4.55;1.70;;;18.30;99.90;;;;;;5046534;28;20029;-77
2022/07/01 11:17:10;;;;;;;5.03;1.10;;;18.30;99.90;;;;;;5048529;28;20037;-77
2022/07/01 11:19:36;;;;;;;5.03;1.33;;;18.80;99.90;;;;;;5046193;28;20037;-76
2022/07/01 11:22:03;;;;;;;2.30;1.30;;;19.10;99.90;;;;;;5046408;28;20652;-76
2022/07/01 11:24:28;;;;;;;4.22;1.73;;;19.40;99.90;;;;;;5045071;28;20033;-77
2022/07/01 11:27:06;;;;;;;3.42;2.05;;;19.80;99.90;;;;;;5047027;28;20748;-77
2022/07/01 11:29:32;;;;;;;3.17;1.15;;;19.70;99.90;;;;;;5045979;28;20132;-77
2022/07/01 11:31:58;;;;;;;0.80;0.73;;;19.80;99.90;;;;;;5044411;28;20886;-78
2022/07/01 11:34:27;;;;;;;3.78;0.80;;;19.60;99.90;;;;;;5046518;28;20395;-76
2022/07/01 11:39:41;;;;;;;4.15;1.25;;;19.20;99.90;;;;;;5046943;28;20531;-77
2022/07/01 11:42:08;;;;;;;5.47;1.85;;;19.80;99.90;;;;;;5047897;28;20608;-78
2022/07/01 11:44:40;;;;;;;4.53;1.08;;;19.80;99.90;;;;;;5047248;28;20124;-78
2022/07/01 11:47:21;;;;;;;8.23;1.33;;;19.80;99.90;;;;;;5045724;28;20072;-79
2022/07/01 11:49:48;;;;;;;6.13;1.05;;;20.20;99.90;;;;;;5047666;28;20086;-79
2022/07/01 11:52:15;;;;;;;5.05;1.80;;;20.40;99.90;;;;;;5047610;28;20444;-78
2022/07/01 11:54:44;;;;;;;4.32;0.88;;;20.40;99.90;;;;;;5047139;28;20033;-79
2022/07/01 11:57:16;;;;;;;6.13;1.52;;;20.30;99.90;;;;;;5047634;28;20426;-79
2022/07/01 11:59:43;;;;;;;2.63;0.85;;;20.10;99.90;;;;;;5045425;28;20538;-78
2022/07/01 12:02:11;;;;;;;3.25;0.93;;;19.70;99.90;;;;;;5045510;28;20447;-79
2022/07/01 12:04:38;;;;;;;4.05;0.88;;;19.90;99.90;;;;;;5044331;28;20226;-78
2022/07/01 12:07:05;;;;;;;3.60;0.73;;;20.00;99.90;;;;;;5045805;28;20414;-79
2022/07/01 12:09:31;;;;;;;3.88;0.70;;;19.80;99.90;;;;;;5045862;28;20093;-80
2022/07/01 12:11:57;;;;;;;5.57;1.75;;;19.40;99.90;;;;;;5045613;28;20106;-78
2022/07/01 12:14:32;;;;;;;3.72;0.80;;;19.40;99.90;;;;;;5046335;28;20035;-78
2022/07/01 12:17:04;;;;;;;2.50;0.77;;;19.60;99.90;;;;;;5044317;28;20055;-77
2022/07/01 12:19:38;;;;;;;3.45;0.60;;;19.80;99.90;;;;;;5046697;28;20063;-78
2022/07/01 12:22:12;;;;;;;2.75;0.95;;;19.80;99.90;;;;;;5045892;28;20044;-79
2022/07/01 12:24:38;;;;;;;1.35;0.57;;;19.80;99.90;;;;;;5047128;28;20045;-78
2022/07/01 12:27:06;;;;;;;2.42;0.40;;;19.60;99.90;;;;;;5047152;28;20124;-79
2022/07/01 12:29:48;;;;;;;4.40;1.30;;;19.40;99.90;;;;;;5045049;28;20393;-78
2022/07/01 12:32:17;;;;;;;3.78;1.30;;;19.20;99.90;;;;;;5044029;28;20123;-78
2022/07/01 12:34:47;;;;;;;2.53;0.80;;;19.20;99.90;;;;;;5044667;28;20100;-79
2022/07/01 12:37:15;;;;;;;6.10;0.93;;;19.10;99.90;;;;;;5046876;28;20051;-79
2022/07/01 12:39:43;;;;;;;2.90;0.90;;;19.60;99.90;;;;;;5046044;28;20033;-78
2022/07/01 12:42:18;;;;;;;2.90;0.60;;;20.10;99.90;;;;;;5046509;28;20098;-79
2022/07/01 12:44:46;;;;;;;5.30;1.00;;;20.40;99.90;;;;;;5043097;28;20037;-79
2022/07/01 12:47:39;;;;;;;3.50;1.17;;;20.20;99.90;;;;;;5045444;28;20465;-78
2022/07/01 12:50:15;;;;;;;1.75;0.52;;;20.50;99.90;;;;;;5043313;28;20092;-79
2022/07/01 12:53:00;;;;;;;6.07;0.88;;;20.70;99.90;;;;;;5046627;28;20146;-80
2022/07/01 12:55:27;;;;;;;5.50;1.05;;;20.30;99.90;;;;;;5043478;28;20124;-79
2022/07/01 12:57:55;;;;;;;3.17;0.57;;;19.80;99.90;;;;;;5045645;28;20056;-80
2022/07/01 13:00:22;;;;;;;4.88;0.70;;;20.10;99.90;;;;;;5040854;28;20124;-79
2022/07/01 13:02:51;;;;;;;3.75;1.10;;;20.20;99.90;;;;;;5045625;28;20053;-79